createdAt,value
2022-11-30T00:01:32.383Z,98238.38
2022-11-30T00:04:00.457Z,98236.55
2022-11-30T00:06:28.603Z,98233.38
2022-11-30T00:08:58.057Z,98231.81
2022-11-30T00:11:28.645Z,98230.55
2022-11-30T00:13:56.768Z,98232.31
2022-11-30T00:16:25.537Z,98233.33
2022-11-30T00:18:53.671Z,98233.83
2022-11-30T00:21:21.742Z,98230.17
2022-11-30T00:23:51.359Z,98227.48
2022-11-30T00:26:22.151Z,98231.80
2022-11-30T00:28:50.959Z,98228.88
2022-11-30T00:31:20.042Z,98225.46
2022-11-30T00:33:48.797Z,98222.03
2022-11-30T00:36:19.424Z,98224.22
2022-11-30T00:38:48.497Z,98224.28
2022-11-30T00:41:16.849Z,98221.11
2022-11-30T00:43:45.408Z,98216.91
2022-11-30T00:46:14.258Z,98214.37
2022-11-30T00:48:42.740Z,98214.77
2022-11-30T00:51:12.905Z,98213.52
2022-11-30T00:53:41.746Z,98216.26
2022-11-30T00:56:10.792Z,98214.90
2022-11-30T00:58:38.872Z,98216.36
2022-11-30T01:01:08.247Z,98210.80
2022-11-30T01:03:37.191Z,98209.49
2022-11-30T01:06:07.722Z,98210.98
2022-11-30T01:08:36.234Z,98207.12
2022-11-30T01:11:12.973Z,98208.39
2022-11-30T01:13:41.252Z,98205.89
2022-11-30T01:16:12.247Z,98203.54
2022-11-30T01:18:40.567Z,98201.88
2022-11-30T01:21:10.919Z,98201.95
2022-11-30T01:23:39.556Z,98206.85
2022-11-30T01:26:08.197Z,98205.56
2022-11-30T01:28:36.575Z,98207.27
2022-11-30T01:31:10.868Z,98207.31
2022-11-30T01:33:40.214Z,98206.48
2022-11-30T01:36:15.176Z,98208.58
2022-11-30T01:38:53.100Z,98206.45
2022-11-30T01:41:25.377Z,98209.84
2022-11-30T01:43:56.084Z,98210.33
2022-11-30T01:46:29.121Z,98213.04
2022-11-30T01:49:02.682Z,98219.14
2022-11-30T01:51:36.693Z,98218.25
2022-11-30T01:54:08.989Z,98214.13
2022-11-30T01:56:55.850Z,98216.98
2022-11-30T01:59:25.557Z,98217.80
2022-11-30T02:01:55.020Z,98224.06
2022-11-30T02:04:29.830Z,98227.14
2022-11-30T02:06:59.935Z,98230.15
2022-11-30T02:09:29.676Z,98226.36
2022-11-30T02:11:57.696Z,98227.03
2022-11-30T02:14:45.380Z,98228.77
2022-11-30T02:17:36.655Z,98228.50
2022-11-30T02:20:25.187Z,98231.31
2022-11-30T02:22:53.716Z,98232.71
2022-11-30T02:25:43.303Z,98234.48
2022-11-30T02:28:36.206Z,98233.87
2022-11-30T02:31:08.892Z,98235.83
2022-11-30T02:33:39.452Z,98237.41
2022-11-30T02:36:10.118Z,98230.67
2022-11-30T02:38:39.357Z,98232.50
2022-11-30T02:41:07.593Z,98231.85
2022-11-30T02:43:36.052Z,98232.89
2022-11-30T02:46:11.642Z,98234.92
2022-11-30T02:48:46.511Z,98235.20
2022-11-30T02:51:20.201Z,98238.11
2022-11-30T02:53:49.030Z,98237.27
2022-11-30T02:56:17.934Z,98237.61
2022-11-30T02:58:46.104Z,98237.60
2022-11-30T03:01:14.555Z,98239.98
2022-11-30T03:03:42.729Z,98239.86
2022-11-30T03:06:11.144Z,98239.98
2022-11-30T03:08:39.235Z,98237.84
2022-11-30T03:11:07.227Z,98238.55
2022-11-30T03:13:35.374Z,98244.60
2022-11-30T03:16:13.523Z,98243.40
2022-11-30T03:18:41.695Z,98243.42
2022-11-30T03:21:11.408Z,98244.87
2022-11-30T03:23:39.993Z,98245.67
2022-11-30T03:26:08.967Z,98244.75
2022-11-30T03:28:37.781Z,98244.87
2022-11-30T03:31:06.019Z,98248.16
2022-11-30T03:33:34.068Z,98245.66
2022-11-30T03:36:05.387Z,98246.16
2022-11-30T03:38:33.554Z,98248.05
2022-11-30T03:41:12.188Z,98248.23
2022-11-30T03:43:41.087Z,98245.95
2022-11-30T03:46:09.205Z,98250.12
2022-11-30T03:48:37.576Z,98253.04
2022-11-30T03:51:06.045Z,98251.92
2022-11-30T03:53:34.652Z,98255.05
2022-11-30T03:56:05.360Z,98251.91
2022-11-30T03:58:33.938Z,98249.08
2022-11-30T04:01:04.534Z,98249.39
2022-11-30T04:03:33.734Z,98249.02
2022-11-30T04:06:03.590Z,98249.59
2022-11-30T04:08:32.661Z,98250.23
2022-11-30T04:11:02.017Z,98248.38
2022-11-30T04:13:31.573Z,98249.13
2022-11-30T04:16:00.274Z,98248.91
2022-11-30T04:18:30.267Z,98248.31
2022-11-30T04:21:00.496Z,98246.98
2022-11-30T04:23:38.793Z,98247.58
2022-11-30T04:26:10.763Z,98251.84
2022-11-30T04:28:38.806Z,98254.39
2022-11-30T04:31:07.351Z,98255.96
2022-11-30T04:33:35.870Z,98252.41
2022-11-30T04:36:06.358Z,98252.67
2022-11-30T04:38:36.420Z,98251.72
2022-11-30T04:41:08.548Z,98252.21
2022-11-30T04:43:37.295Z,98252.02
2022-11-30T04:46:06.574Z,98252.83
2022-11-30T04:48:35.423Z,98252.58
2022-11-30T04:51:06.249Z,98256.88
2022-11-30T04:53:35.802Z,98259.39
2022-11-30T04:56:09.147Z,98263.42
2022-11-30T04:58:39.147Z,98261.93
2022-11-30T05:01:08.282Z,98261.95
2022-11-30T05:03:36.410Z,98260.94
2022-11-30T05:06:05.076Z,98260.42
2022-11-30T05:08:33.121Z,98261.45
2022-11-30T05:11:01.202Z,98261.64
2022-11-30T05:13:29.249Z,98264.45
2022-11-30T05:15:57.235Z,98265.72
2022-11-30T05:18:32.111Z,98266.32
2022-11-30T05:21:00.327Z,98268.30
2022-11-30T05:23:28.950Z,98263.14
2022-11-30T05:25:57.175Z,98264.48
2022-11-30T05:28:25.465Z,98262.28
2022-11-30T05:30:53.495Z,98265.34
2022-11-30T05:33:21.662Z,98268.27
2022-11-30T05:35:49.639Z,98272.61
2022-11-30T05:38:18.516Z,98272.17
2022-11-30T05:40:46.922Z,98272.23
2022-11-30T05:43:15.120Z,98271.09
2022-11-30T05:45:43.259Z,98272.81
2022-11-30T05:48:11.329Z,98272.33
2022-11-30T05:50:39.492Z,98274.45
2022-11-30T05:53:07.929Z,98278.75
2022-11-30T05:55:36.408Z,98281.88
2022-11-30T05:58:04.498Z,98286.95
2022-11-30T06:00:32.613Z,98289.30
2022-11-30T06:03:00.809Z,98290.44
2022-11-30T06:05:29.186Z,98290.95
2022-11-30T06:07:59.805Z,98289.56
2022-11-30T06:10:28.119Z,98286.95
2022-11-30T06:12:56.516Z,98290.13
2022-11-30T06:15:24.904Z,98293.98
2022-11-30T06:17:55.520Z,98295.02
2022-11-30T06:20:23.909Z,98294.51
2022-11-30T06:22:52.210Z,98301.48
2022-11-30T06:25:20.318Z,98300.89
2022-11-30T06:27:48.435Z,98303.89
2022-11-30T06:30:16.782Z,98310.79
2022-11-30T06:32:49.708Z,98315.92
2022-11-30T06:35:18.983Z,98319.39
2022-11-30T06:37:47.122Z,98317.36
2022-11-30T06:40:15.516Z,98318.48
2022-11-30T06:42:43.879Z,98317.16
2022-11-30T06:45:12.618Z,98315.91
2022-11-30T06:47:40.789Z,98317.88
2022-11-30T06:50:14.453Z,98316.84
2022-11-30T06:52:42.634Z,98317.59
2022-11-30T06:55:11.292Z,98320.84
2022-11-30T06:57:39.456Z,98316.88
2022-11-30T07:00:08.521Z,98316.23
2022-11-30T07:02:36.998Z,98317.07
2022-11-30T07:05:06.240Z,98315.20
2022-11-30T07:07:34.671Z,98317.20
2022-11-30T07:10:02.899Z,98323.23
2022-11-30T07:12:30.871Z,98322.58
2022-11-30T07:14:58.812Z,98324.84
2022-11-30T07:17:27.078Z,98325.64
2022-11-30T07:19:55.013Z,98320.23
2022-11-30T07:22:23.213Z,98319.14
2022-11-30T07:25:09.673Z,98317.87
2022-11-30T07:27:37.813Z,98318.30
2022-11-30T07:30:06.548Z,98317.90
2022-11-30T07:32:34.762Z,98316.37
2022-11-30T07:35:02.736Z,98313.77
2022-11-30T07:37:30.901Z,98311.43
2022-11-30T07:39:58.939Z,98309.34
2022-11-30T07:42:27.013Z,98308.77
2022-11-30T07:44:58.815Z,98310.84
2022-11-30T07:47:27.866Z,98309.52
2022-11-30T07:49:56.563Z,98303.80
2022-11-30T07:52:24.964Z,98305.44
2022-11-30T07:54:53.288Z,98305.48
2022-11-30T07:57:21.448Z,98310.01
2022-11-30T07:59:49.780Z,98308.88
2022-11-30T08:02:18.644Z,98312.02
2022-11-30T08:04:47.848Z,98315.77
2022-11-30T08:07:18.374Z,98313.02
2022-11-30T08:09:46.389Z,98312.68
2022-11-30T08:12:14.526Z,98312.89
2022-11-30T08:15:17.427Z,98312.70
2022-11-30T08:17:30.823Z,98310.73
2022-11-30T08:20:00.590Z,98310.64
2022-11-30T08:22:29.021Z,98307.07
2022-11-30T08:24:57.277Z,98308.56
2022-11-30T08:27:25.338Z,98310.67
2022-11-30T08:29:53.626Z,98309.73
2022-11-30T08:32:21.794Z,98312.71
2022-11-30T08:34:50.328Z,98310.36
2022-11-30T08:37:18.661Z,98307.27
2022-11-30T08:39:46.887Z,98308.02
2022-11-30T08:42:14.999Z,98304.58
2022-11-30T08:44:43.202Z,98303.19
2022-11-30T08:47:11.260Z,98304.04
2022-11-30T08:49:39.298Z,98304.40
2022-11-30T08:52:22.682Z,98304.84
2022-11-30T08:54:51.379Z,98302.02
2022-11-30T08:57:21.453Z,98302.70
2022-11-30T08:59:49.879Z,98300.95
2022-11-30T09:02:19.983Z,98296.68
2022-11-30T09:04:49.555Z,98292.77
2022-11-30T09:07:18.101Z,98289.72
2022-11-30T09:09:46.320Z,98287.27
2022-11-30T09:12:14.669Z,98288.65
2022-11-30T09:14:43.074Z,98286.19
2022-11-30T09:17:11.545Z,98283.77
2022-11-30T09:19:40.432Z,98279.30
2022-11-30T09:22:08.574Z,98275.19
2022-11-30T09:24:38.406Z,98272.63
2022-11-30T09:27:06.896Z,98270.45
2022-11-30T09:29:37.085Z,98264.65
2022-11-30T09:32:05.729Z,98264.77
2022-11-30T09:34:34.270Z,98265.90
2022-11-30T09:37:02.646Z,98267.69
2022-11-30T09:39:31.068Z,98263.41
2022-11-30T09:42:05.378Z,98261.65
2022-11-30T09:44:58.747Z,98258.66
2022-11-30T09:47:42.126Z,98255.55
2022-11-30T09:50:18.589Z,98250.83
2022-11-30T09:52:51.878Z,98247.98
2022-11-30T09:55:41.265Z,98245.23
2022-11-30T09:58:23.917Z,98244.61
2022-11-30T10:00:52.101Z,98243.30
2022-11-30T10:03:22.490Z,98239.81
2022-11-30T10:06:05.250Z,98238.71
2022-11-30T10:08:50.723Z,98233.66
2022-11-30T10:11:22.385Z,98223.94
2022-11-30T10:14:17.931Z,98225.27
2022-11-30T10:16:52.350Z,98224.44
2022-11-30T10:19:45.556Z,98220.48
2022-11-30T10:22:38.579Z,98216.95
2022-11-30T10:25:21.083Z,98218.02
2022-11-30T10:28:18.080Z,98216.91
2022-11-30T10:30:54.149Z,98215.15
2022-11-30T10:33:38.331Z,98212.94
2022-11-30T10:36:24.255Z,98208.80
2022-11-30T10:39:22.351Z,98208.52
2022-11-30T10:42:10.000Z,98205.14
2022-11-30T10:44:45.224Z,98206.34
2022-11-30T10:47:22.750Z,98209.61
2022-11-30T10:49:52.965Z,98207.85
2022-11-30T10:52:29.502Z,98206.26
2022-11-30T10:55:04.250Z,98201.20
2022-11-30T10:57:34.044Z,98204.56
2022-11-30T11:00:06.483Z,98201.93
2022-11-30T11:02:42.714Z,98201.71
2022-11-30T11:05:24.084Z,98199.60
2022-11-30T11:08:24.907Z,98199.67
2022-11-30T11:10:57.888Z,98201.90
2022-11-30T11:13:43.925Z,98202.63
2022-11-30T11:16:14.285Z,98196.74
2022-11-30T11:18:57.344Z,98193.12
2022-11-30T11:21:25.716Z,98191.23
2022-11-30T11:23:56.637Z,98192.31
2022-11-30T11:26:30.439Z,98195.67
2022-11-30T11:29:02.859Z,98191.49
2022-11-30T11:31:49.181Z,98190.40
2022-11-30T11:34:31.990Z,98188.39
2022-11-30T11:37:45.551Z,98187.67
2022-11-30T11:40:17.712Z,98190.09
2022-11-30T11:42:50.221Z,98188.48
2022-11-30T11:45:22.184Z,98184.64
2022-11-30T11:48:05.736Z,98183.91
2022-11-30T11:53:44.052Z,98178.45
2022-11-30T11:56:26.875Z,98177.48
2022-11-30T11:59:10.860Z,98172.36
2022-11-30T12:01:54.283Z,98175.04
2022-11-30T12:04:32.345Z,98172.34
2022-11-30T12:07:05.070Z,98169.44
2022-11-30T12:10:43.510Z,98170.34
2022-11-30T12:13:12.532Z,98166.55
2022-11-30T12:16:01.329Z,98167.96
2022-11-30T12:18:50.158Z,98164.02
2022-11-30T12:21:24.789Z,98164.05
2022-11-30T12:24:05.421Z,98159.54
2022-11-30T12:26:49.425Z,98159.05
2022-11-30T12:29:56.745Z,98160.80
2022-11-30T12:32:55.311Z,98156.82
2022-11-30T12:35:38.742Z,98158.53
2022-11-30T12:38:21.253Z,98158.31
2022-11-30T12:41:27.483Z,98157.96
2022-11-30T12:44:08.593Z,98159.84
2022-11-30T12:46:43.248Z,98157.92
2022-11-30T12:49:16.261Z,98156.55
2022-11-30T12:52:14.122Z,98153.75
2022-11-30T12:54:48.546Z,98154.09
2022-11-30T12:57:18.782Z,98152.89
2022-11-30T13:00:00.716Z,98154.47
2022-11-30T13:02:58.917Z,98151.88
2022-11-30T13:05:36.689Z,98152.77
2022-11-30T13:08:20.094Z,98152.08
2022-11-30T13:10:54.623Z,98153.27
2022-11-30T13:13:29.174Z,98153.20
2022-11-30T13:15:59.984Z,98148.63
2022-11-30T13:18:28.914Z,98149.78
2022-11-30T13:21:06.795Z,98149.91
2022-11-30T13:23:47.636Z,98151.61
2022-11-30T13:26:40.712Z,98154.73
2022-11-30T13:29:35.171Z,98158.20
2022-11-30T13:32:34.018Z,98156.65
2022-11-30T13:35:29.027Z,98155.62
2022-11-30T13:41:09.201Z,98157.39
2022-11-30T13:43:45.846Z,98156.71
2022-11-30T13:46:23.844Z,98160.00
2022-11-30T13:49:18.111Z,98158.43
2022-11-30T13:52:01.450Z,98162.73
2022-11-30T13:54:51.451Z,98161.14
2022-11-30T13:57:20.059Z,98160.05
2022-11-30T13:59:53.961Z,98156.73
2022-11-30T14:02:32.176Z,98157.55
2022-11-30T14:05:19.307Z,98158.20
2022-11-30T14:08:10.422Z,98158.52
2022-11-30T14:10:43.355Z,98162.82
2022-11-30T14:13:11.576Z,98160.54
2022-11-30T14:15:39.786Z,98155.00
2022-11-30T14:18:07.950Z,98150.65
2022-11-30T14:21:02.584Z,98150.33
2022-11-30T14:23:37.189Z,98150.32
2022-11-30T14:26:19.955Z,98147.73
2022-11-30T14:29:03.400Z,98144.94
2022-11-30T14:31:37.605Z,98144.24
2022-11-30T14:34:21.557Z,98140.42
2022-11-30T14:36:57.180Z,98136.21
2022-11-30T14:39:37.151Z,98140.16
2022-11-30T14:42:06.751Z,98148.09
2022-11-30T14:44:37.134Z,98149.98
2022-11-30T14:47:19.956Z,98150.97
2022-11-30T14:49:55.291Z,98148.84
2022-11-30T14:52:41.971Z,98148.61
2022-11-30T14:55:34.153Z,98144.72
2022-11-30T14:58:44.706Z,98146.06
2022-11-30T15:01:32.934Z,98154.88
2022-11-30T15:04:14.244Z,98153.46
2022-11-30T15:06:44.291Z,98148.42
2022-11-30T15:09:22.439Z,98148.58
2022-11-30T15:11:53.354Z,98152.88
2022-11-30T15:14:22.421Z,98155.96
2022-11-30T15:16:57.398Z,98158.37
2022-11-30T15:19:27.541Z,98154.84
2022-11-30T15:21:58.449Z,98152.89
2022-11-30T15:24:29.907Z,98152.13
2022-11-30T15:27:10.634Z,98155.16
2022-11-30T15:29:45.138Z,98153.86
2022-11-30T15:32:20.321Z,98152.91
2022-11-30T15:35:01.088Z,98151.27
2022-11-30T15:37:35.431Z,98152.89
2022-11-30T15:40:07.186Z,98150.92
2022-11-30T15:42:41.129Z,98148.27
2022-11-30T15:45:25.705Z,98150.30
2022-11-30T15:47:56.365Z,98152.89
2022-11-30T15:50:31.123Z,98157.53
2022-11-30T15:53:20.934Z,98161.30
2022-11-30T15:55:51.815Z,98162.29
2022-11-30T15:58:32.938Z,98166.42
2022-11-30T16:01:03.662Z,98165.00
2022-11-30T16:03:35.064Z,98165.29
2022-11-30T16:06:06.009Z,98165.38
2022-11-30T16:08:34.918Z,98168.07
2022-11-30T16:11:08.008Z,98168.66
2022-11-30T16:13:37.038Z,98168.55
2022-11-30T16:16:12.499Z,98170.51
2022-11-30T16:18:41.591Z,98169.56
2022-11-30T16:21:13.141Z,98170.35
2022-11-30T16:23:41.756Z,98169.40
2022-11-30T16:26:36.071Z,98167.13
2022-11-30T16:29:04.961Z,98169.66
2022-11-30T16:31:35.453Z,98171.18
2022-11-30T16:34:04.451Z,98171.71
2022-11-30T16:36:37.107Z,98171.01
2022-11-30T16:39:06.107Z,98169.74
2022-11-30T16:41:35.123Z,98168.98
2022-11-30T16:44:12.518Z,98168.89
2022-11-30T16:46:40.971Z,98166.70
2022-11-30T16:49:09.149Z,98168.47
2022-11-30T16:51:37.659Z,98169.57
2022-11-30T16:54:06.161Z,98170.16
2022-11-30T16:56:34.576Z,98168.16
2022-11-30T16:59:02.905Z,98169.61
2022-11-30T17:01:41.730Z,98169.66
2022-11-30T17:04:19.514Z,98169.06
2022-11-30T17:06:50.546Z,98172.62
2022-11-30T17:09:21.413Z,98168.92
2022-11-30T17:11:50.820Z,98169.00
2022-11-30T17:14:20.730Z,98172.87
2022-11-30T17:16:49.370Z,98172.08
2022-11-30T17:19:17.892Z,98173.54
2022-11-30T17:21:46.129Z,98172.75
2022-11-30T17:24:14.710Z,98171.34
2022-11-30T17:26:43.027Z,98169.72
2022-11-30T17:29:11.362Z,98169.14
2022-11-30T17:31:39.498Z,98169.19
2022-11-30T17:34:11.629Z,98169.75
2022-11-30T17:36:40.201Z,98172.02
2022-11-30T17:39:09.054Z,98174.77
2022-11-30T17:41:37.321Z,98180.27
2022-11-30T17:44:05.658Z,98178.19
2022-11-30T17:46:34.683Z,98178.71
2022-11-30T17:49:03.123Z,98184.81
2022-11-30T17:51:31.600Z,98180.27
2022-11-30T17:53:59.882Z,98178.34
2022-11-30T17:56:28.096Z,98179.52
2022-11-30T17:58:56.228Z,98178.83
2022-11-30T18:01:26.993Z,98175.58
2022-11-30T18:03:56.069Z,98175.59
2022-11-30T18:06:24.536Z,98179.80
2022-11-30T18:08:52.827Z,98181.23
2022-11-30T18:11:26.486Z,98179.55
2022-11-30T18:13:57.061Z,98180.23
2022-11-30T18:16:31.234Z,98180.73
2022-11-30T18:19:00.240Z,98188.48
2022-11-30T18:21:29.923Z,98192.42
2022-11-30T18:23:59.077Z,98197.52
2022-11-30T18:26:27.687Z,98196.90
2022-11-30T18:28:58.560Z,98199.10
2022-11-30T18:31:28.776Z,98198.94
2022-11-30T18:33:59.580Z,98197.19
2022-11-30T18:36:28.608Z,98200.33
2022-11-30T18:38:57.943Z,98204.02
2022-11-30T18:41:28.771Z,98208.57
2022-11-30T18:43:58.225Z,98213.08
2022-11-30T18:46:27.357Z,98217.36
2022-11-30T18:48:56.631Z,98220.41
2022-11-30T18:51:31.088Z,98221.91
2022-11-30T18:54:02.096Z,98217.54
2022-11-30T18:56:32.759Z,98219.38
2022-11-30T18:59:03.880Z,98214.65
2022-11-30T19:01:33.128Z,98218.66
2022-11-30T19:04:04.248Z,98219.61
2022-11-30T19:06:34.125Z,98222.98
2022-11-30T19:09:08.575Z,98222.02
2022-11-30T19:11:38.585Z,98224.51
2022-11-30T19:14:07.810Z,98226.53
2022-11-30T19:16:36.582Z,98230.98
2022-11-30T19:19:07.841Z,98233.02
2022-11-30T19:21:36.204Z,98235.90
2022-11-30T19:24:04.898Z,98239.13
2022-11-30T19:26:33.386Z,98241.13
2022-11-30T19:29:01.927Z,98247.48
2022-11-30T19:31:30.142Z,98251.02
2022-11-30T19:33:58.570Z,98254.33
2022-11-30T19:36:30.347Z,98258.67
2022-11-30T19:39:00.339Z,98261.64
2022-11-30T19:41:29.017Z,98262.73
2022-11-30T19:44:03.647Z,98263.82
2022-11-30T19:46:34.932Z,98267.32
2022-11-30T19:49:03.693Z,98264.06
2022-11-30T19:51:32.183Z,98262.59
2022-11-30T19:54:02.083Z,98262.23
2022-11-30T19:56:32.519Z,98259.64
2022-11-30T19:59:05.309Z,98255.30
2022-11-30T20:01:34.933Z,98253.55
2022-11-30T20:04:06.071Z,98248.91
2022-11-30T20:06:37.725Z,98249.95
2022-11-30T20:09:08.223Z,98253.19
2022-11-30T20:11:37.127Z,98248.84
2022-11-30T20:14:05.708Z,98244.60
2022-11-30T20:16:34.021Z,98245.16
2022-11-30T20:19:02.959Z,98246.80
2022-11-30T20:21:34.645Z,98244.41
2022-11-30T20:24:06.404Z,98243.48
2022-11-30T20:26:37.929Z,98243.22
2022-11-30T20:29:08.424Z,98247.23
2022-11-30T20:31:37.055Z,98247.16
2022-11-30T20:34:06.153Z,98246.84
2022-11-30T20:36:35.128Z,98243.76
2022-11-30T20:39:04.478Z,98240.30
2022-11-30T20:41:34.261Z,98243.37
2022-11-30T20:44:03.406Z,98242.86
2022-11-30T20:46:34.365Z,98239.27
2022-11-30T20:49:04.444Z,98241.78
2022-11-30T20:51:35.222Z,98242.28
2022-11-30T20:54:07.139Z,98241.95
2022-11-30T20:56:37.386Z,98246.72
2022-11-30T20:59:17.038Z,98249.98
2022-11-30T21:01:47.288Z,98249.95
2022-11-30T21:04:15.478Z,98251.70
2022-11-30T21:06:45.924Z,98248.98
2022-11-30T21:09:15.487Z,98249.13
2022-11-30T21:11:44.777Z,98250.81
2022-11-30T21:14:13.405Z,98256.11
2022-11-30T21:16:41.699Z,98261.65
2022-11-30T21:19:12.081Z,98258.88
2022-11-30T21:21:40.396Z,98260.42
2022-11-30T21:24:11.241Z,98258.24
2022-11-30T21:26:42.087Z,98261.24
2022-11-30T21:29:16.003Z,98265.85
2022-11-30T21:31:45.079Z,98268.91
2022-11-30T21:34:13.744Z,98266.36
2022-11-30T21:36:42.339Z,98265.85
2022-11-30T21:39:14.362Z,98260.70
2022-11-30T21:41:42.723Z,98259.14
2022-11-30T21:44:13.236Z,98261.89
2022-11-30T21:46:42.022Z,98264.48
2022-11-30T21:49:10.544Z,98262.60
2022-11-30T21:51:39.295Z,98264.06
2022-11-30T21:54:11.939Z,98262.20
2022-11-30T21:56:41.096Z,98259.86
2022-11-30T21:59:11.471Z,98262.86
2022-11-30T22:01:42.817Z,98263.41
2022-11-30T22:04:13.081Z,98259.66
2022-11-30T22:06:42.542Z,98261.48
2022-11-30T22:09:14.090Z,98259.80
2022-11-30T22:11:45.276Z,98257.34
2022-11-30T22:14:16.746Z,98258.33
2022-11-30T22:16:45.771Z,98257.10
2022-11-30T22:19:13.909Z,98257.75
2022-11-30T22:21:48.263Z,98259.28
2022-11-30T22:24:18.423Z,98260.27
2022-11-30T22:26:49.229Z,98262.54
2022-11-30T22:29:23.057Z,98264.00
2022-11-30T22:31:53.845Z,98262.80
2022-11-30T22:34:21.919Z,98261.45
2022-11-30T22:36:49.987Z,98259.46
2022-11-30T22:39:20.650Z,98259.65
2022-11-30T22:41:55.062Z,98258.39
2022-11-30T22:44:26.119Z,98261.89
2022-11-30T22:46:54.551Z,98259.37
2022-11-30T22:49:23.013Z,98256.70
2022-11-30T22:51:51.567Z,98255.63
2022-11-30T22:54:19.850Z,98255.27
2022-11-30T22:56:48.044Z,98253.15
2022-11-30T22:59:16.396Z,98250.47
2022-11-30T23:01:46.774Z,98248.48
2022-11-30T23:04:18.522Z,98249.34
2022-11-30T23:06:48.320Z,98251.50
2022-11-30T23:09:20.565Z,98252.39
2022-11-30T23:11:49.405Z,98251.44
2022-11-30T23:14:18.190Z,98254.70
2022-11-30T23:16:46.369Z,98255.23
2022-11-30T23:19:15.751Z,98257.89
2022-11-30T23:21:47.211Z,98256.92
2022-11-30T23:24:20.346Z,98260.75
2022-11-30T23:26:48.675Z,98254.89
2022-11-30T23:29:17.582Z,98252.67
2022-11-30T23:31:46.511Z,98254.88
2022-11-30T23:34:18.391Z,98253.40
2022-11-30T23:36:47.310Z,98251.42
2022-11-30T23:39:18.673Z,98251.58
2022-11-30T23:41:47.411Z,98252.12
2022-11-30T23:44:15.805Z,98251.50
2022-11-30T23:46:44.459Z,98250.13
2022-11-30T23:49:14.401Z,98245.71
2022-11-30T23:51:43.274Z,98240.80
2022-11-30T23:54:11.945Z,98246.09
2022-11-30T23:56:40.171Z,98250.63
2022-11-30T23:59:08.552Z,98252.45
